createdAt,value
2022-11-20T00:01:09.599Z,-5.08
2022-11-20T00:03:36.257Z,-5.09
2022-11-20T00:06:08.140Z,-5.12
2022-11-20T00:08:34.823Z,-5.09
2022-11-20T00:11:16.049Z,-5.08
2022-11-20T00:13:45.412Z,-5.11
2022-11-20T00:16:13.731Z,-5.13
2022-11-20T00:18:40.524Z,-5.09
2022-11-20T00:21:11.938Z,-5.09
2022-11-20T00:23:38.434Z,-5.09
2022-11-20T00:26:06.492Z,-5.19
2022-11-20T00:28:33.081Z,-5.15
2022-11-20T00:31:12.151Z,-5.21
2022-11-20T00:33:40.133Z,-5.18
2022-11-20T00:36:08.867Z,-5.20
2022-11-20T00:38:35.968Z,-5.24
2022-11-20T00:41:05.370Z,-5.17
2022-11-20T00:43:31.876Z,-5.22
2022-11-20T00:46:03.254Z,-5.26
2022-11-20T00:48:29.809Z,-5.32
2022-11-20T00:50:57.016Z,-5.33
2022-11-20T00:53:23.891Z,-5.36
2022-11-20T00:55:55.190Z,-5.39
2022-11-20T00:58:23.015Z,-5.40
2022-11-20T01:00:49.662Z,-5.40
2022-11-20T01:03:17.330Z,-5.42
2022-11-20T01:05:43.967Z,-5.42
2022-11-20T01:08:10.416Z,-5.44
2022-11-20T01:10:36.724Z,-5.58
2022-11-20T01:13:03.239Z,-5.50
2022-11-20T01:15:29.551Z,-5.56
2022-11-20T01:17:55.915Z,-5.58
2022-11-20T01:20:22.267Z,-5.63
2022-11-20T01:22:48.570Z,-5.62
2022-11-20T01:25:15.144Z,-5.59
2022-11-20T01:27:41.449Z,-5.61
2022-11-20T01:30:08.623Z,-5.62
2022-11-20T01:32:35.111Z,-5.61
2022-11-20T01:35:01.499Z,-5.57
2022-11-20T01:37:27.798Z,-5.56
2022-11-20T01:39:54.091Z,-5.64
2022-11-20T01:42:20.494Z,-5.56
2022-11-20T01:44:59.983Z,-5.53
2022-11-20T01:47:38.044Z,-5.51
2022-11-20T01:50:29.261Z,-5.44
2022-11-20T01:52:59.983Z,-5.27
2022-11-20T01:55:33.346Z,-5.26
2022-11-20T01:58:01.207Z,-5.20
2022-11-20T02:00:27.741Z,-5.05
2022-11-20T02:03:16.655Z,-4.97
2022-11-20T02:05:48.530Z,-4.89
2022-11-20T02:08:14.908Z,-4.88
2022-11-20T02:10:41.289Z,-4.86
2022-11-20T02:13:08.416Z,-4.69
2022-11-20T02:15:35.053Z,-4.69
2022-11-20T02:18:01.969Z,-4.66
2022-11-20T02:20:28.622Z,-4.79
2022-11-20T02:23:01.150Z,-4.69
2022-11-20T02:25:30.960Z,-4.67
2022-11-20T02:27:57.734Z,-4.59
2022-11-20T02:30:24.491Z,-4.63
2022-11-20T02:32:50.817Z,-4.58
2022-11-20T02:35:41.507Z,-4.47
2022-11-20T02:38:07.843Z,-4.40
2022-11-20T02:40:34.243Z,-4.38
2022-11-20T02:43:00.594Z,-4.38
2022-11-20T02:45:26.996Z,-4.35
2022-11-20T02:47:54.116Z,-4.21
2022-11-20T02:50:20.556Z,-4.14
2022-11-20T02:52:47.371Z,-4.13
2022-11-20T02:55:13.725Z,-4.07
2022-11-20T02:57:40.275Z,-4.02
2022-11-20T03:00:07.716Z,-4.03
2022-11-20T03:02:34.501Z,-4.05
2022-11-20T03:05:00.949Z,-4.05
2022-11-20T03:07:27.555Z,-3.97
2022-11-20T03:09:53.955Z,-3.99
2022-11-20T03:12:20.428Z,-3.94
2022-11-20T03:14:52.583Z,-3.87
2022-11-20T03:17:19.544Z,-3.74
2022-11-20T03:19:45.899Z,-3.68
2022-11-20T03:22:12.200Z,-3.72
2022-11-20T03:24:38.790Z,-3.78
2022-11-20T03:27:05.372Z,-3.69
2022-11-20T03:29:31.761Z,-3.64
2022-11-20T03:31:58.100Z,-3.65
2022-11-20T03:34:24.778Z,-3.60
2022-11-20T03:36:51.157Z,-3.58
2022-11-20T03:39:17.480Z,-3.58
2022-11-20T03:41:43.808Z,-3.61
2022-11-20T03:44:12.328Z,-3.53
2022-11-20T03:46:39.196Z,-3.47
2022-11-20T03:49:05.732Z,-3.43
2022-11-20T03:51:34.265Z,-3.44
2022-11-20T03:54:05.485Z,-3.37
2022-11-20T03:56:34.367Z,-3.37
2022-11-20T03:59:00.955Z,-3.34
2022-11-20T04:01:36.242Z,-3.28
2022-11-20T04:04:03.128Z,-3.25
2022-11-20T04:06:39.034Z,-3.21
2022-11-20T04:09:06.452Z,-3.16
2022-11-20T04:11:35.081Z,-3.13
2022-11-20T04:14:04.747Z,-3.14
2022-11-20T04:16:33.622Z,-3.12
2022-11-20T04:19:02.497Z,-3.11
2022-11-20T04:21:29.517Z,-3.08
2022-11-20T04:23:56.313Z,-3.04
2022-11-20T04:26:25.001Z,-3.01
2022-11-20T04:28:51.615Z,-3.01
2022-11-20T04:31:21.133Z,-2.94
2022-11-20T04:33:48.083Z,-2.89
2022-11-20T04:36:22.812Z,-2.80
2022-11-20T04:38:57.557Z,-2.87
2022-11-20T04:41:26.641Z,-2.93
2022-11-20T04:43:55.789Z,-2.83
2022-11-20T04:46:22.252Z,-2.74
2022-11-20T04:48:48.872Z,-2.69
2022-11-20T04:51:15.431Z,-2.70
2022-11-20T04:53:42.793Z,-2.72
2022-11-20T04:56:11.078Z,-2.67
2022-11-20T04:58:37.928Z,-2.58
2022-11-20T05:01:19.724Z,-2.60
2022-11-20T05:03:46.497Z,-2.60
2022-11-20T05:06:15.936Z,-2.51
2022-11-20T05:08:42.439Z,-2.43
2022-11-20T05:11:14.060Z,-2.36
2022-11-20T05:13:40.924Z,-2.38
2022-11-20T05:16:10.159Z,-2.40
2022-11-20T05:18:38.142Z,-2.40
2022-11-20T05:21:05.455Z,-2.39
2022-11-20T05:23:33.338Z,-2.37
2022-11-20T05:26:00.610Z,-2.33
2022-11-20T05:28:29.460Z,-2.22
2022-11-20T05:30:56.057Z,-2.28
2022-11-20T05:33:23.043Z,-2.22
2022-11-20T05:35:50.327Z,-2.22
2022-11-20T05:38:17.142Z,-2.15
2022-11-20T05:40:44.050Z,-2.06
2022-11-20T05:43:10.484Z,-2.03
2022-11-20T05:45:37.157Z,-2.20
2022-11-20T05:48:03.971Z,-2.12
2022-11-20T05:50:30.973Z,-2.06
2022-11-20T05:53:00.608Z,-2.07
2022-11-20T05:55:27.870Z,-2.01
2022-11-20T05:57:55.321Z,-1.92
2022-11-20T06:00:21.882Z,-1.87
2022-11-20T06:02:48.448Z,-1.86
2022-11-20T06:05:14.904Z,-1.95
2022-11-20T06:07:41.507Z,-1.94
2022-11-20T06:10:08.131Z,-2.01
2022-11-20T06:12:34.522Z,-1.91
2022-11-20T06:15:00.827Z,-1.84
2022-11-20T06:17:27.390Z,-1.81
2022-11-20T06:19:53.778Z,-1.83
2022-11-20T06:22:20.128Z,-1.81
2022-11-20T06:24:46.464Z,-1.78
2022-11-20T06:27:12.874Z,-1.75
2022-11-20T06:29:39.426Z,-1.77
2022-11-20T06:32:05.932Z,-1.76
2022-11-20T06:34:32.257Z,-1.68
2022-11-20T06:36:58.681Z,-1.66
2022-11-20T06:39:25.105Z,-1.68
2022-11-20T06:41:55.807Z,-1.71
2022-11-20T06:44:25.350Z,-1.66
2022-11-20T06:46:51.720Z,-1.55
2022-11-20T06:49:18.087Z,-1.64
2022-11-20T06:51:44.408Z,-1.64
2022-11-20T06:54:10.986Z,-1.70
2022-11-20T06:56:37.313Z,-1.60
2022-11-20T06:59:07.601Z,-1.55
2022-11-20T07:01:34.254Z,-1.51
2022-11-20T07:04:00.572Z,-1.50
2022-11-20T07:06:27.123Z,-1.52
2022-11-20T07:08:53.411Z,-1.51
2022-11-20T07:11:20.087Z,-1.48
2022-11-20T07:13:46.471Z,-1.52
2022-11-20T07:16:12.793Z,-1.48
2022-11-20T07:18:39.367Z,-1.48
2022-11-20T07:21:08.398Z,-1.51
2022-11-20T07:23:35.098Z,-1.51
2022-11-20T07:26:09.120Z,-1.51
2022-11-20T07:28:36.103Z,-1.51
2022-11-20T07:31:02.640Z,-1.48
2022-11-20T07:33:29.425Z,-1.41
2022-11-20T07:35:55.778Z,-1.40
2022-11-20T07:38:22.121Z,-1.36
2022-11-20T07:40:48.580Z,-1.36
2022-11-20T07:43:14.963Z,-1.34
2022-11-20T07:45:41.274Z,-1.27
2022-11-20T07:48:07.666Z,-1.24
2022-11-20T07:50:33.978Z,-1.26
2022-11-20T07:53:05.469Z,-1.29
2022-11-20T07:55:32.309Z,-1.23
2022-11-20T07:57:59.063Z,-1.21
2022-11-20T08:00:27.371Z,-1.12
2022-11-20T08:02:54.014Z,-1.19
2022-11-20T08:05:20.355Z,-1.10
2022-11-20T08:07:46.821Z,-1.06
2022-11-20T08:10:15.251Z,-1.03
2022-11-20T08:12:46.841Z,-1.00
2022-11-20T08:15:13.572Z,-0.97
2022-11-20T08:17:40.180Z,-0.94
2022-11-20T08:20:07.059Z,-0.98
2022-11-20T08:22:34.369Z,-0.95
2022-11-20T08:25:00.683Z,-0.91
2022-11-20T08:27:27.174Z,-0.86
2022-11-20T08:29:53.559Z,-0.86
2022-11-20T08:32:19.876Z,-0.87
2022-11-20T08:34:46.264Z,-0.83
2022-11-20T08:37:13.033Z,-0.75
2022-11-20T08:39:39.658Z,-0.67
2022-11-20T08:42:09.380Z,-0.61
2022-11-20T08:44:35.782Z,-0.60
2022-11-20T08:47:02.354Z,-0.59
2022-11-20T08:49:28.667Z,-0.55
2022-11-20T08:51:55.069Z,-0.55
2022-11-20T08:54:21.717Z,-0.49
2022-11-20T08:56:48.349Z,-0.45
2022-11-20T09:02:01.116Z,-0.31
2022-11-20T09:04:27.479Z,-0.15
2022-11-20T09:06:53.913Z,-0.16
2022-11-20T09:09:20.743Z,0.12
2022-11-20T09:11:47.399Z,0.07
2022-11-20T09:14:13.783Z,0.09
2022-11-20T09:16:40.112Z,0.13
2022-11-20T09:19:34.109Z,0.09
2022-11-20T09:21:58.271Z,0.12
2022-11-20T09:24:26.600Z,0.09
2022-11-20T09:26:52.977Z,0.24
2022-11-20T09:29:19.617Z,0.25
2022-11-20T09:31:46.433Z,0.53
2022-11-20T09:34:12.747Z,0.71
2022-11-20T09:36:39.075Z,0.68
2022-11-20T09:39:05.480Z,0.68
2022-11-20T09:42:16.450Z,0.68
2022-11-20T09:45:04.289Z,0.62
2022-11-20T09:47:54.264Z,0.82
2022-11-20T09:50:35.804Z,0.92
2022-11-20T09:53:24.590Z,0.87
2022-11-20T09:55:51.537Z,0.93
2022-11-20T09:58:32.277Z,0.80
2022-11-20T10:01:14.914Z,0.74
2022-11-20T10:04:10.822Z,0.85
2022-11-20T10:07:31.411Z,0.88
2022-11-20T10:09:57.130Z,0.99
2022-11-20T10:12:36.156Z,0.97
2022-11-20T10:15:21.024Z,1.18
2022-11-20T10:18:09.489Z,1.20
2022-11-20T10:20:42.001Z,1.23
2022-11-20T10:23:25.569Z,1.45
2022-11-20T10:26:34.435Z,1.46
2022-11-20T10:29:19.780Z,1.74
2022-11-20T10:32:01.108Z,1.60
2022-11-20T10:34:42.588Z,1.55
2022-11-20T10:37:31.619Z,1.51
2022-11-20T10:40:20.344Z,1.69
2022-11-20T10:42:57.925Z,1.81
2022-11-20T10:45:27.348Z,1.82
2022-11-20T10:48:28.938Z,1.95
2022-11-20T10:51:16.550Z,1.76
2022-11-20T10:54:19.778Z,1.55
2022-11-20T10:56:52.308Z,1.48
2022-11-20T10:59:54.686Z,1.42
2022-11-20T11:02:26.070Z,1.50
2022-11-20T11:04:55.701Z,1.42
2022-11-20T11:07:26.943Z,1.40
2022-11-20T11:09:55.405Z,1.36
2022-11-20T11:12:23.996Z,1.39
2022-11-20T11:14:52.884Z,1.41
2022-11-20T11:17:21.373Z,1.25
2022-11-20T11:20:01.498Z,1.36
2022-11-20T11:22:30.102Z,1.38
2022-11-20T11:24:56.594Z,1.42
2022-11-20T11:27:23.143Z,1.43
2022-11-20T11:29:49.504Z,1.41
2022-11-20T11:32:18.110Z,1.46
2022-11-20T11:34:45.001Z,1.53
2022-11-20T11:37:18.240Z,1.65
2022-11-20T11:39:51.881Z,1.73
2022-11-20T11:42:25.889Z,1.64
2022-11-20T11:44:53.178Z,1.67
2022-11-20T11:47:34.177Z,1.62
2022-11-20T11:50:09.552Z,1.58
2022-11-20T11:53:17.501Z,1.66
2022-11-20T11:55:59.939Z,1.63
2022-11-20T11:58:46.863Z,1.68
2022-11-20T12:01:33.709Z,1.71
2022-11-20T12:04:26.822Z,1.65
2022-11-20T12:07:18.369Z,1.81
2022-11-20T12:09:52.850Z,1.90
2022-11-20T12:12:25.376Z,1.78
2022-11-20T12:14:55.741Z,1.81
2022-11-20T12:17:22.478Z,1.81
2022-11-20T12:19:49.079Z,2.10
2022-11-20T12:22:39.858Z,2.08
2022-11-20T12:25:15.079Z,2.51
2022-11-20T12:27:56.919Z,2.23
2022-11-20T12:30:23.916Z,1.85
2022-11-20T12:33:14.124Z,1.90
2022-11-20T12:35:40.380Z,2.06
2022-11-20T12:38:32.883Z,2.19
2022-11-20T12:41:23.501Z,2.27
2022-11-20T12:44:21.020Z,2.29
2022-11-20T12:46:57.900Z,2.39
2022-11-20T12:49:33.252Z,2.34
2022-11-20T12:52:06.890Z,2.32
2022-11-20T12:55:04.714Z,2.42
2022-11-20T12:57:49.932Z,2.00
2022-11-20T13:00:20.463Z,1.94
2022-11-20T13:03:14.732Z,2.05
2022-11-20T13:06:00.700Z,2.01
2022-11-20T13:08:30.884Z,2.22
2022-11-20T13:11:15.430Z,2.18
2022-11-20T13:13:51.081Z,2.22
2022-11-20T13:16:30.225Z,2.16
2022-11-20T13:18:56.807Z,2.22
2022-11-20T13:21:37.604Z,2.15
2022-11-20T13:24:22.761Z,1.99
2022-11-20T13:26:49.755Z,1.95
2022-11-20T13:29:19.972Z,1.93
2022-11-20T13:31:48.203Z,1.99
2022-11-20T13:34:26.589Z,2.24
2022-11-20T13:36:58.627Z,2.14
2022-11-20T13:39:27.279Z,2.08
2022-11-20T13:42:02.159Z,2.03
2022-11-20T13:44:39.419Z,2.01
2022-11-20T13:47:23.521Z,2.11
2022-11-20T13:49:50.195Z,2.12
2022-11-20T13:52:36.716Z,2.09
2022-11-20T13:55:09.252Z,2.06
2022-11-20T13:57:41.496Z,2.03
2022-11-20T14:00:18.526Z,2.13
2022-11-20T14:02:47.800Z,2.21
2022-11-20T14:05:21.396Z,2.74
2022-11-20T14:07:49.427Z,2.48
2022-11-20T14:10:32.060Z,2.32
2022-11-20T14:12:59.644Z,2.24
2022-11-20T14:15:30.448Z,2.26
2022-11-20T14:17:57.409Z,2.19
2022-11-20T14:20:29.835Z,2.16
2022-11-20T14:22:56.636Z,2.09
2022-11-20T14:25:26.650Z,2.05
2022-11-20T14:27:56.133Z,1.94
2022-11-20T14:30:47.474Z,1.97
2022-11-20T14:33:15.530Z,1.98
2022-11-20T14:35:46.866Z,1.93
2022-11-20T14:38:17.214Z,1.94
2022-11-20T14:40:44.142Z,1.98
2022-11-20T14:43:18.883Z,2.02
2022-11-20T14:45:49.719Z,2.10
2022-11-20T14:48:17.015Z,1.88
2022-11-20T14:50:43.300Z,1.81
2022-11-20T14:53:09.847Z,1.72
2022-11-20T14:55:38.536Z,1.67
2022-11-20T14:58:22.924Z,1.64
2022-11-20T15:01:26.161Z,1.59
2022-11-20T15:04:01.277Z,1.55
2022-11-20T15:06:27.941Z,1.49
2022-11-20T15:08:54.467Z,1.47
2022-11-20T15:11:30.728Z,1.42
2022-11-20T15:13:57.863Z,1.37
2022-11-20T15:16:24.622Z,1.35
2022-11-20T15:18:51.453Z,1.38
2022-11-20T15:21:19.966Z,1.33
2022-11-20T15:23:46.375Z,1.27
2022-11-20T15:26:19.833Z,1.25
2022-11-20T15:28:48.325Z,1.28
2022-11-20T15:31:17.457Z,1.20
2022-11-20T15:33:46.209Z,1.24
2022-11-20T15:36:12.533Z,1.26
2022-11-20T15:38:39.168Z,1.25
2022-11-20T15:41:05.850Z,1.38
2022-11-20T15:43:32.287Z,1.47
2022-11-20T15:46:14.403Z,1.49
2022-11-20T15:48:48.511Z,1.41
2022-11-20T15:51:21.200Z,1.41
2022-11-20T15:53:47.909Z,1.40
2022-11-20T15:56:15.351Z,1.40
2022-11-20T15:58:42.125Z,1.38
2022-11-20T16:01:14.272Z,1.33
2022-11-20T16:03:41.994Z,1.36
2022-11-20T16:06:08.767Z,1.40
2022-11-20T16:08:35.171Z,1.43
2022-11-20T16:11:01.698Z,1.49
2022-11-20T16:13:28.393Z,1.50
2022-11-20T16:15:59.206Z,1.47
2022-11-20T16:18:25.974Z,1.50
2022-11-20T16:20:54.249Z,1.56
2022-11-20T16:23:21.484Z,1.53
2022-11-20T16:25:48.804Z,1.53
2022-11-20T16:28:18.885Z,1.56
2022-11-20T16:30:46.153Z,1.56
2022-11-20T16:33:15.459Z,1.56
2022-11-20T16:35:42.393Z,1.57
2022-11-20T16:38:08.743Z,1.55
2022-11-20T16:40:35.247Z,1.59
2022-11-20T16:43:10.802Z,1.56
2022-11-20T16:45:44.870Z,1.67
2022-11-20T16:48:16.121Z,1.67
2022-11-20T16:50:48.134Z,1.66
2022-11-20T16:53:14.566Z,1.68
2022-11-20T16:55:41.444Z,1.69
2022-11-20T16:58:07.873Z,1.73
2022-11-20T17:00:37.403Z,1.72
2022-11-20T17:03:05.448Z,1.74
2022-11-20T17:05:32.705Z,1.82
2022-11-20T17:07:59.109Z,1.88
2022-11-20T17:10:25.469Z,1.95
2022-11-20T17:12:51.899Z,1.96
2022-11-20T17:15:18.442Z,1.93
2022-11-20T17:17:44.778Z,1.91
2022-11-20T17:20:11.489Z,1.90
2022-11-20T17:22:38.367Z,1.92
2022-11-20T17:25:05.315Z,2.12
2022-11-20T17:27:31.946Z,2.08
2022-11-20T17:29:58.276Z,1.98
2022-11-20T17:32:24.825Z,1.93
2022-11-20T17:34:51.380Z,1.91
2022-11-20T17:37:17.684Z,1.86
2022-11-20T17:39:44.325Z,1.87
2022-11-20T17:42:10.757Z,1.87
2022-11-20T17:44:37.067Z,1.94
2022-11-20T17:47:03.526Z,2.03
2022-11-20T17:49:30.192Z,1.94
2022-11-20T17:51:56.564Z,1.97
2022-11-20T17:54:23.185Z,1.97
2022-11-20T17:56:49.576Z,2.03
2022-11-20T17:59:16.180Z,2.00
2022-11-20T18:01:42.597Z,1.91
2022-11-20T18:04:09.416Z,1.93
2022-11-20T18:06:35.946Z,1.85
2022-11-20T18:09:06.434Z,1.89
2022-11-20T18:11:35.568Z,1.85
2022-11-20T18:14:04.608Z,1.86
2022-11-20T18:16:42.149Z,1.84
2022-11-20T18:19:09.992Z,1.85
2022-11-20T18:21:36.595Z,1.84
2022-11-20T18:24:03.096Z,1.85
2022-11-20T18:26:29.534Z,1.74
2022-11-20T18:28:56.786Z,1.86
2022-11-20T18:31:23.286Z,1.88
2022-11-20T18:33:49.919Z,1.88
2022-11-20T18:36:17.525Z,1.83
2022-11-20T18:38:46.258Z,1.81
2022-11-20T18:41:18.045Z,1.80
2022-11-20T18:43:44.363Z,1.80
2022-11-20T18:46:10.812Z,1.80
2022-11-20T18:48:37.359Z,1.84
2022-11-20T18:51:07.771Z,1.83
2022-11-20T18:53:37.682Z,1.81
2022-11-20T18:56:06.062Z,1.78
2022-11-20T18:58:33.042Z,1.82
2022-11-20T19:01:07.383Z,1.83
2022-11-20T19:03:34.896Z,1.83
2022-11-20T19:06:01.496Z,1.83
2022-11-20T19:08:28.554Z,1.83
2022-11-20T19:10:55.395Z,1.79
2022-11-20T19:13:21.794Z,1.77
2022-11-20T19:15:48.320Z,1.72
2022-11-20T19:18:14.680Z,1.70
2022-11-20T19:20:41.084Z,1.71
2022-11-20T19:23:07.500Z,1.69
2022-11-20T19:25:37.890Z,1.64
2022-11-20T19:28:05.589Z,1.64
2022-11-20T19:30:33.296Z,1.67
2022-11-20T19:32:59.628Z,1.65
2022-11-20T19:35:26.353Z,1.78
2022-11-20T19:37:53.355Z,1.67
2022-11-20T19:40:20.111Z,1.59
2022-11-20T19:42:46.559Z,1.60
2022-11-20T19:45:12.977Z,1.57
2022-11-20T19:48:06.583Z,1.57
2022-11-20T19:50:26.303Z,1.60
2022-11-20T19:52:58.380Z,1.62
2022-11-20T19:55:25.377Z,1.56
2022-11-20T19:57:52.148Z,1.59
2022-11-20T20:00:25.646Z,1.66
2022-11-20T20:02:57.572Z,1.68
2022-11-20T20:05:23.966Z,1.68
2022-11-20T20:07:50.292Z,1.70
2022-11-20T20:10:17.083Z,1.64
2022-11-20T20:12:43.716Z,1.64
2022-11-20T20:15:10.192Z,1.65
2022-11-20T20:17:36.612Z,1.66
2022-11-20T20:20:03.435Z,1.69
2022-11-20T20:22:29.944Z,1.69
2022-11-20T20:24:56.240Z,1.72
2022-11-20T20:27:22.908Z,1.70
2022-11-20T20:29:49.213Z,1.74
2022-11-20T20:32:15.540Z,1.74
2022-11-20T20:34:42.438Z,1.72
2022-11-20T20:37:08.994Z,1.74
2022-11-20T20:39:35.365Z,1.77
2022-11-20T20:42:01.859Z,1.74
2022-11-20T20:44:28.201Z,1.73
2022-11-20T20:46:54.557Z,1.70
2022-11-20T20:49:21.245Z,1.73
2022-11-20T20:51:48.130Z,1.72
2022-11-20T20:54:14.619Z,1.77
2022-11-20T20:56:40.927Z,1.76
2022-11-20T20:59:07.287Z,1.80
2022-11-20T21:01:33.938Z,1.87
2022-11-20T21:04:00.394Z,1.89
2022-11-20T21:06:26.844Z,1.85
2022-11-20T21:08:53.424Z,1.84
2022-11-20T21:11:20.589Z,1.81
2022-11-20T21:13:48.134Z,1.84
2022-11-20T21:16:16.021Z,1.83
2022-11-20T21:18:42.488Z,1.85
2022-11-20T21:21:12.783Z,1.85
2022-11-20T21:23:39.437Z,1.90
2022-11-20T21:26:08.877Z,1.89
2022-11-20T21:28:36.970Z,1.88
2022-11-20T21:31:15.320Z,1.91
2022-11-20T21:33:44.154Z,1.92
2022-11-20T21:36:12.915Z,1.98
2022-11-20T21:38:39.676Z,1.96
2022-11-20T21:41:08.103Z,1.95
2022-11-20T21:43:35.416Z,1.94
2022-11-20T21:46:10.186Z,1.95
2022-11-20T21:48:38.666Z,1.91
2022-11-20T21:51:09.788Z,1.96
2022-11-20T21:53:36.564Z,2.00
2022-11-20T21:56:04.000Z,1.96
2022-11-20T21:58:30.996Z,2.10
2022-11-20T22:00:58.206Z,2.03
2022-11-20T22:03:24.803Z,2.01
2022-11-20T22:05:57.912Z,2.03
2022-11-20T22:08:25.610Z,1.95
2022-11-20T22:10:59.156Z,2.00
2022-11-20T22:13:26.710Z,1.99
2022-11-20T22:16:00.779Z,2.05
2022-11-20T22:18:27.578Z,2.05
2022-11-20T22:20:53.927Z,2.16
2022-11-20T22:23:20.339Z,1.99
2022-11-20T22:25:46.668Z,2.08
2022-11-20T22:28:13.089Z,2.06
2022-11-20T22:30:39.515Z,2.06
2022-11-20T22:33:11.934Z,2.24
2022-11-20T22:35:39.843Z,2.14
2022-11-20T22:38:06.137Z,2.23
2022-11-20T22:40:32.543Z,2.27
2022-11-20T22:42:59.859Z,2.35
2022-11-20T22:45:26.170Z,2.51
2022-11-20T22:47:52.564Z,2.45
2022-11-20T22:50:18.954Z,2.34
2022-11-20T22:52:45.328Z,2.34
2022-11-20T22:55:16.142Z,2.35
2022-11-20T22:57:44.141Z,2.35
2022-11-20T23:00:11.116Z,2.40
2022-11-20T23:02:37.648Z,2.47
2022-11-20T23:05:04.376Z,2.52
2022-11-20T23:07:30.786Z,2.52
2022-11-20T23:09:57.251Z,2.57
2022-11-20T23:12:23.634Z,2.58
2022-11-20T23:14:49.937Z,2.68
2022-11-20T23:17:16.730Z,2.77
2022-11-20T23:19:43.123Z,2.68
2022-11-20T23:22:09.538Z,2.66
2022-11-20T23:24:35.843Z,2.69
2022-11-20T23:27:02.240Z,2.73
2022-11-20T23:29:28.671Z,2.93
2022-11-20T23:31:55.101Z,2.87
2022-11-20T23:34:21.469Z,2.84
2022-11-20T23:36:47.963Z,2.87
2022-11-20T23:39:14.362Z,2.96
2022-11-20T23:41:40.681Z,3.01
2022-11-20T23:44:07.257Z,2.99
2022-11-20T23:46:33.662Z,3.07
2022-11-20T23:49:00.336Z,3.07
2022-11-20T23:51:27.044Z,3.09
2022-11-20T23:53:53.452Z,3.09
2022-11-20T23:56:19.768Z,3.08
2022-11-20T23:58:46.115Z,3.08
